sensor_id;sensor_type;location;lat;lon;timestamp;temperature;humidity
84791;DHT22;75024;43.486;3.794;2024-01-27T00:00:26;9.40;75.30
84791;DHT22;75024;43.486;3.794;2024-01-27T00:02:51;9.50;75.30
84791;DHT22;75024;43.486;3.794;2024-01-27T00:05:17;9.50;75.20
84791;DHT22;75024;43.486;3.794;2024-01-27T00:07:43;9.60;75.00
84791;DHT22;75024;43.486;3.794;2024-01-27T00:10:08;9.60;74.90
84791;DHT22;75024;43.486;3.794;2024-01-27T00:12:35;9.70;75.00
84791;DHT22;75024;43.486;3.794;2024-01-27T00:15:00;9.80;74.90
84791;DHT22;75024;43.486;3.794;2024-01-27T00:17:26;9.90;74.50
84791;DHT22;75024;43.486;3.794;2024-01-27T00:19:53;9.90;74.20
84791;DHT22;75024;43.486;3.794;2024-01-27T00:22:19;9.80;74.40
84791;DHT22;75024;43.486;3.794;2024-01-27T00:24:48;9.70;74.80
84791;DHT22;75024;43.486;3.794;2024-01-27T00:27:14;9.60;75.30
84791;DHT22;75024;43.486;3.794;2024-01-27T00:29:40;9.40;75.80
84791;DHT22;75024;43.486;3.794;2024-01-27T00:32:05;9.30;75.70
84791;DHT22;75024;43.486;3.794;2024-01-27T00:34:31;9.30;75.90
84791;DHT22;75024;43.486;3.794;2024-01-27T00:36:57;9.40;75.90
84791;DHT22;75024;43.486;3.794;2024-01-27T00:39:22;9.30;75.90
84791;DHT22;75024;43.486;3.794;2024-01-27T00:41:48;9.30;76.40
84791;DHT22;75024;43.486;3.794;2024-01-27T00:44:14;9.20;76.20
84791;DHT22;75024;43.486;3.794;2024-01-27T00:46:39;9.10;76.20
84791;DHT22;75024;43.486;3.794;2024-01-27T00:49:05;9.10;76.20
84791;DHT22;75024;43.486;3.794;2024-01-27T00:51:31;9.00;76.00
84791;DHT22;75024;43.486;3.794;2024-01-27T00:53:57;8.90;76.30
84791;DHT22;75024;43.486;3.794;2024-01-27T00:56:23;8.80;76.70
84791;DHT22;75024;43.486;3.794;2024-01-27T00:58:48;8.70;77.10
84791;DHT22;75024;43.486;3.794;2024-01-27T01:01:14;8.60;78.00
84791;DHT22;75024;43.486;3.794;2024-01-27T01:03:40;8.60;78.60
84791;DHT22;75024;43.486;3.794;2024-01-27T01:06:06;8.60;78.80
84791;DHT22;75024;43.486;3.794;2024-01-27T01:08:32;8.70;79.10
84791;DHT22;75024;43.486;3.794;2024-01-27T01:10:58;8.70;78.90
84791;DHT22;75024;43.486;3.794;2024-01-27T01:13:24;8.80;78.30
84791;DHT22;75024;43.486;3.794;2024-01-27T01:15:49;8.70;78.50
84791;DHT22;75024;43.486;3.794;2024-01-27T01:18:15;8.70;78.50
84791;DHT22;75024;43.486;3.794;2024-01-27T01:20:41;8.70;78.10
84791;DHT22;75024;43.486;3.794;2024-01-27T01:23:07;8.70;78.30
84791;DHT22;75024;43.486;3.794;2024-01-27T01:25:32;8.70;78.40
84791;DHT22;75024;43.486;3.794;2024-01-27T01:27:58;8.70;78.40
84791;DHT22;75024;43.486;3.794;2024-01-27T01:30:24;8.70;78.60
84791;DHT22;75024;43.486;3.794;2024-01-27T01:32:49;8.80;78.50
84791;DHT22;75024;43.486;3.794;2024-01-27T01:35:15;8.70;78.40
84791;DHT22;75024;43.486;3.794;2024-01-27T01:37:41;8.80;78.70
84791;DHT22;75024;43.486;3.794;2024-01-27T01:40:07;8.90;78.40
84791;DHT22;75024;43.486;3.794;2024-01-27T01:42:33;9.00;78.20
84791;DHT22;75024;43.486;3.794;2024-01-27T01:44:59;9.10;77.90
84791;DHT22;75024;43.486;3.794;2024-01-27T01:47:25;9.20;77.80
84791;DHT22;75024;43.486;3.794;2024-01-27T01:49:51;9.20;77.50
84791;DHT22;75024;43.486;3.794;2024-01-27T01:52:17;9.30;77.50
84791;DHT22;75024;43.486;3.794;2024-01-27T01:54:49;9.30;77.40
84791;DHT22;75024;43.486;3.794;2024-01-27T01:57:16;9.30;77.10
84791;DHT22;75024;43.486;3.794;2024-01-27T01:59:42;9.40;77.20
84791;DHT22;75024;43.486;3.794;2024-01-27T02:02:09;9.30;77.20
84791;DHT22;75024;43.486;3.794;2024-01-27T02:04:44;9.30;77.20
84791;DHT22;75024;43.486;3.794;2024-01-27T02:07:11;9.10;77.10
84791;DHT22;75024;43.486;3.794;2024-01-27T02:09:37;8.60;76.50
84791;DHT22;75024;43.486;3.794;2024-01-27T02:12:04;8.20;76.80
84791;DHT22;75024;43.486;3.794;2024-01-27T02:14:29;7.90;77.70
84791;DHT22;75024;43.486;3.794;2024-01-27T02:16:56;7.90;78.30
84791;DHT22;75024;43.486;3.794;2024-01-27T02:19:22;7.80;79.10
84791;DHT22;75024;43.486;3.794;2024-01-27T02:21:48;7.80;79.20
84791;DHT22;75024;43.486;3.794;2024-01-27T02:24:13;7.80;79.80
84791;DHT22;75024;43.486;3.794;2024-01-27T02:26:39;7.90;79.60
84791;DHT22;75024;43.486;3.794;2024-01-27T02:29:05;7.80;79.60
84791;DHT22;75024;43.486;3.794;2024-01-27T02:31:30;7.90;80.40
84791;DHT22;75024;43.486;3.794;2024-01-27T02:33:56;8.00;80.30
84791;DHT22;75024;43.486;3.794;2024-01-27T02:36:22;8.10;80.20
84791;DHT22;75024;43.486;3.794;2024-01-27T02:38:47;8.10;80.40
84791;DHT22;75024;43.486;3.794;2024-01-27T02:41:13;8.10;80.70
84791;DHT22;75024;43.486;3.794;2024-01-27T02:43:40;8.20;80.30
84791;DHT22;75024;43.486;3.794;2024-01-27T02:46:10;8.20;80.10
84791;DHT22;75024;43.486;3.794;2024-01-27T02:48:36;8.20;80.00
84791;DHT22;75024;43.486;3.794;2024-01-27T02:51:05;8.20;79.90
84791;DHT22;75024;43.486;3.794;2024-01-27T02:53:30;8.20;79.80
84791;DHT22;75024;43.486;3.794;2024-01-27T02:55:56;8.20;79.80
84791;DHT22;75024;43.486;3.794;2024-01-27T02:58:22;8.20;79.90
84791;DHT22;75024;43.486;3.794;2024-01-27T03:00:48;8.20;79.50
84791;DHT22;75024;43.486;3.794;2024-01-27T03:03:13;8.30;79.70
84791;DHT22;75024;43.486;3.794;2024-01-27T03:05:40;8.30;79.70
84791;DHT22;75024;43.486;3.794;2024-01-27T03:08:06;8.20;79.50
84791;DHT22;75024;43.486;3.794;2024-01-27T03:10:32;8.10;79.40
84791;DHT22;75024;43.486;3.794;2024-01-27T03:12:58;8.10;79.90
84791;DHT22;75024;43.486;3.794;2024-01-27T03:15:23;8.20;79.90
84791;DHT22;75024;43.486;3.794;2024-01-27T03:17:49;8.30;79.90
84791;DHT22;75024;43.486;3.794;2024-01-27T03:20:15;8.20;79.30
84791;DHT22;75024;43.486;3.794;2024-01-27T03:22:40;8.30;79.70
84791;DHT22;75024;43.486;3.794;2024-01-27T03:25:10;8.30;79.60
84791;DHT22;75024;43.486;3.794;2024-01-27T03:27:38;8.30;79.30
84791;DHT22;75024;43.486;3.794;2024-01-27T03:30:04;8.30;79.10
84791;DHT22;75024;43.486;3.794;2024-01-27T03:32:31;8.20;79.40
84791;DHT22;75024;43.486;3.794;2024-01-27T03:35:00;8.20;79.20
84791;DHT22;75024;43.486;3.794;2024-01-27T03:37:26;8.20;79.40
84791;DHT22;75024;43.486;3.794;2024-01-27T03:39:52;8.30;79.60
84791;DHT22;75024;43.486;3.794;2024-01-27T03:42:18;8.20;79.60
84791;DHT22;75024;43.486;3.794;2024-01-27T03:44:44;8.20;79.90
84791;DHT22;75024;43.486;3.794;2024-01-27T03:47:09;8.20;79.90
84791;DHT22;75024;43.486;3.794;2024-01-27T03:49:37;8.20;80.00
84791;DHT22;75024;43.486;3.794;2024-01-27T03:52:04;8.30;80.00
84791;DHT22;75024;43.486;3.794;2024-01-27T03:54:29;8.20;80.20
84791;DHT22;75024;43.486;3.794;2024-01-27T03:56:55;8.20;80.10
84791;DHT22;75024;43.486;3.794;2024-01-27T03:59:21;8.20;80.10
84791;DHT22;75024;43.486;3.794;2024-01-27T04:01:47;8.20;80.00
84791;DHT22;75024;43.486;3.794;2024-01-27T04:04:13;8.10;80.20
84791;DHT22;75024;43.486;3.794;2024-01-27T04:06:41;8.00;79.70
84791;DHT22;75024;43.486;3.794;2024-01-27T04:09:08;7.80;79.50
84791;DHT22;75024;43.486;3.794;2024-01-27T04:11:35;7.70;80.10
84791;DHT22;75024;43.486;3.794;2024-01-27T04:14:01;7.70;80.20
84791;DHT22;75024;43.486;3.794;2024-01-27T04:16:27;7.60;80.40
84791;DHT22;75024;43.486;3.794;2024-01-27T04:18:53;7.60;80.80
84791;DHT22;75024;43.486;3.794;2024-01-27T04:21:19;7.50;80.80
84791;DHT22;75024;43.486;3.794;2024-01-27T04:23:44;7.60;80.70
84791;DHT22;75024;43.486;3.794;2024-01-27T04:26:10;7.50;81.10
84791;DHT22;75024;43.486;3.794;2024-01-27T04:28:36;7.60;81.00
84791;DHT22;75024;43.486;3.794;2024-01-27T04:31:02;7.50;80.90
84791;DHT22;75024;43.486;3.794;2024-01-27T04:33:28;7.50;81.10
84791;DHT22;75024;43.486;3.794;2024-01-27T04:35:54;7.50;80.80
84791;DHT22;75024;43.486;3.794;2024-01-27T04:38:19;7.50;81.40
84791;DHT22;75024;43.486;3.794;2024-01-27T04:40:45;7.50;81.40
84791;DHT22;75024;43.486;3.794;2024-01-27T04:43:15;7.50;81.60
84791;DHT22;75024;43.486;3.794;2024-01-27T04:45:41;7.50;81.70
84791;DHT22;75024;43.486;3.794;2024-01-27T04:48:07;7.60;81.30
84791;DHT22;75024;43.486;3.794;2024-01-27T04:50:33;7.60;81.10
84791;DHT22;75024;43.486;3.794;2024-01-27T04:52:59;7.50;81.20
84791;DHT22;75024;43.486;3.794;2024-01-27T04:55:25;7.40;81.20
84791;DHT22;75024;43.486;3.794;2024-01-27T04:57:51;7.50;81.30
84791;DHT22;75024;43.486;3.794;2024-01-27T05:00:16;7.60;82.40
84791;DHT22;75024;43.486;3.794;2024-01-27T05:02:43;7.70;81.50
84791;DHT22;75024;43.486;3.794;2024-01-27T05:05:09;7.80;81.00
84791;DHT22;75024;43.486;3.794;2024-01-27T05:07:34;7.70;81.00
84791;DHT22;75024;43.486;3.794;2024-01-27T05:10:00;7.70;80.90
84791;DHT22;75024;43.486;3.794;2024-01-27T05:12:26;7.60;81.40
84791;DHT22;75024;43.486;3.794;2024-01-27T05:14:52;7.60;81.70
84791;DHT22;75024;43.486;3.794;2024-01-27T05:17:17;7.60;81.70
84791;DHT22;75024;43.486;3.794;2024-01-27T05:19:44;7.70;82.00
84791;DHT22;75024;43.486;3.794;2024-01-27T05:22:09;7.80;81.50
84791;DHT22;75024;43.486;3.794;2024-01-27T05:24:35;7.90;81.40
84791;DHT22;75024;43.486;3.794;2024-01-27T05:27:01;7.90;80.90
84791;DHT22;75024;43.486;3.794;2024-01-27T05:29:28;7.90;81.10
84791;DHT22;75024;43.486;3.794;2024-01-27T05:31:53;7.80;81.00
84791;DHT22;75024;43.486;3.794;2024-01-27T05:34:19;7.90;81.00
84791;DHT22;75024;43.486;3.794;2024-01-27T05:36:47;8.00;81.20
84791;DHT22;75024;43.486;3.794;2024-01-27T05:39:13;7.90;80.30
84791;DHT22;75024;43.486;3.794;2024-01-27T05:41:39;7.70;80.70
84791;DHT22;75024;43.486;3.794;2024-01-27T05:44:05;7.70;80.80
84791;DHT22;75024;43.486;3.794;2024-01-27T05:46:31;7.50;80.90
84791;DHT22;75024;43.486;3.794;2024-01-27T05:48:56;7.50;81.30
84791;DHT22;75024;43.486;3.794;2024-01-27T05:51:27;7.40;81.10
84791;DHT22;75024;43.486;3.794;2024-01-27T05:53:52;7.30;80.90
84791;DHT22;75024;43.486;3.794;2024-01-27T05:56:18;7.20;81.30
84791;DHT22;75024;43.486;3.794;2024-01-27T05:58:46;7.10;81.50
84791;DHT22;75024;43.486;3.794;2024-01-27T06:01:12;7.10;81.60
84791;DHT22;75024;43.486;3.794;2024-01-27T06:03:38;7.00;81.20
84791;DHT22;75024;43.486;3.794;2024-01-27T06:06:03;6.90;81.40
84791;DHT22;75024;43.486;3.794;2024-01-27T06:08:29;6.80;81.80
84791;DHT22;75024;43.486;3.794;2024-01-27T06:10:55;6.70;83.10
84791;DHT22;75024;43.486;3.794;2024-01-27T06:13:20;6.60;82.70
84791;DHT22;75024;43.486;3.794;2024-01-27T06:15:46;6.60;82.80
84791;DHT22;75024;43.486;3.794;2024-01-27T06:18:12;6.60;82.90
84791;DHT22;75024;43.486;3.794;2024-01-27T06:20:37;6.60;83.60
84791;DHT22;75024;43.486;3.794;2024-01-27T06:23:05;6.60;83.50
84791;DHT22;75024;43.486;3.794;2024-01-27T06:25:32;6.60;83.30
84791;DHT22;75024;43.486;3.794;2024-01-27T06:27:57;6.70;83.40
84791;DHT22;75024;43.486;3.794;2024-01-27T06:30:23;6.70;83.70
84791;DHT22;75024;43.486;3.794;2024-01-27T06:32:49;6.80;83.70
84791;DHT22;75024;43.486;3.794;2024-01-27T06:35:15;6.80;83.30
84791;DHT22;75024;43.486;3.794;2024-01-27T06:37:41;6.80;83.50
84791;DHT22;75024;43.486;3.794;2024-01-27T06:40:07;6.90;83.20
84791;DHT22;75024;43.486;3.794;2024-01-27T06:42:34;6.80;83.00
84791;DHT22;75024;43.486;3.794;2024-01-27T06:45:00;6.80;83.20
84791;DHT22;75024;43.486;3.794;2024-01-27T06:47:26;6.70;83.10
84791;DHT22;75024;43.486;3.794;2024-01-27T06:49:51;6.70;83.40
84791;DHT22;75024;43.486;3.794;2024-01-27T06:52:17;6.60;83.50
84791;DHT22;75024;43.486;3.794;2024-01-27T06:54:43;6.60;83.30
84791;DHT22;75024;43.486;3.794;2024-01-27T06:57:23;6.60;83.50
84791;DHT22;75024;43.486;3.794;2024-01-27T06:59:50;6.60;83.70
84791;DHT22;75024;43.486;3.794;2024-01-27T07:02:24;6.60;83.50
84791;DHT22;75024;43.486;3.794;2024-01-27T07:04:51;6.60;83.60
84791;DHT22;75024;43.486;3.794;2024-01-27T07:07:22;6.70;84.70
84791;DHT22;75024;43.486;3.794;2024-01-27T07:09:48;6.80;85.00
84791;DHT22;75024;43.486;3.794;2024-01-27T07:12:13;6.90;85.40
84791;DHT22;75024;43.486;3.794;2024-01-27T07:14:39;7.00;85.20
84791;DHT22;75024;43.486;3.794;2024-01-27T07:17:05;7.10;84.90
84791;DHT22;75024;43.486;3.794;2024-01-27T07:19:31;7.00;84.60
84791;DHT22;75024;43.486;3.794;2024-01-27T07:21:57;7.10;84.40
84791;DHT22;75024;43.486;3.794;2024-01-27T07:24:23;7.00;84.30
84791;DHT22;75024;43.486;3.794;2024-01-27T07:26:49;7.00;84.20
84791;DHT22;75024;43.486;3.794;2024-01-27T07:29:14;7.00;83.90
84791;DHT22;75024;43.486;3.794;2024-01-27T07:31:40;6.90;84.10
84791;DHT22;75024;43.486;3.794;2024-01-27T07:34:05;6.90;84.20
84791;DHT22;75024;43.486;3.794;2024-01-27T07:36:32;6.70;83.80
84791;DHT22;75024;43.486;3.794;2024-01-27T07:38:58;6.50;84.30
84791;DHT22;75024;43.486;3.794;2024-01-27T07:41:24;6.50;84.10
84791;DHT22;75024;43.486;3.794;2024-01-27T07:43:50;6.50;84.70
84791;DHT22;75024;43.486;3.794;2024-01-27T07:46:15;6.60;84.70
84791;DHT22;75024;43.486;3.794;2024-01-27T07:48:41;6.60;84.50
84791;DHT22;75024;43.486;3.794;2024-01-27T07:51:07;6.60;84.70
84791;DHT22;75024;43.486;3.794;2024-01-27T07:53:33;6.60;84.40
84791;DHT22;75024;43.486;3.794;2024-01-27T07:55:59;6.70;84.50
84791;DHT22;75024;43.486;3.794;2024-01-27T07:58:25;6.90;84.40
84791;DHT22;75024;43.486;3.794;2024-01-27T08:00:51;6.90;83.90
84791;DHT22;75024;43.486;3.794;2024-01-27T08:03:17;7.10;83.90
84791;DHT22;75024;43.486;3.794;2024-01-27T08:05:42;7.10;83.70
84791;DHT22;75024;43.486;3.794;2024-01-27T08:08:08;7.30;84.10
84791;DHT22;75024;43.486;3.794;2024-01-27T08:10:33;7.50;84.00
84791;DHT22;75024;43.486;3.794;2024-01-27T08:12:59;7.70;82.70
84791;DHT22;75024;43.486;3.794;2024-01-27T08:15:25;7.90;82.70
84791;DHT22;75024;43.486;3.794;2024-01-27T08:17:51;8.00;82.00
84791;DHT22;75024;43.486;3.794;2024-01-27T08:20:16;8.20;81.40
84791;DHT22;75024;43.486;3.794;2024-01-27T08:22:42;8.30;81.00
84791;DHT22;75024;43.486;3.794;2024-01-27T08:25:08;8.50;80.90
84791;DHT22;75024;43.486;3.794;2024-01-27T08:27:34;8.60;80.00
84791;DHT22;75024;43.486;3.794;2024-01-27T08:29:59;8.70;80.50
84791;DHT22;75024;43.486;3.794;2024-01-27T08:32:25;8.90;80.00
84791;DHT22;75024;43.486;3.794;2024-01-27T08:34:50;9.00;79.80
84791;DHT22;75024;43.486;3.794;2024-01-27T08:37:20;9.20;79.50
84791;DHT22;75024;43.486;3.794;2024-01-27T08:39:46;9.30;79.20
84791;DHT22;75024;43.486;3.794;2024-01-27T08:42:12;9.40;78.80
84791;DHT22;75024;43.486;3.794;2024-01-27T08:44:38;9.50;78.70
84791;DHT22;75024;43.486;3.794;2024-01-27T08:47:05;9.60;78.80
84791;DHT22;75024;43.486;3.794;2024-01-27T08:49:31;9.70;78.00
84791;DHT22;75024;43.486;3.794;2024-01-27T08:51:56;9.80;77.90
84791;DHT22;75024;43.486;3.794;2024-01-27T08:54:23;10.00;77.50
84791;DHT22;75024;43.486;3.794;2024-01-27T08:56:49;10.10;77.20
84791;DHT22;75024;43.486;3.794;2024-01-27T08:59:14;10.20;77.40
84791;DHT22;75024;43.486;3.794;2024-01-27T09:01:41;10.60;75.80
84791;DHT22;75024;43.486;3.794;2024-01-27T09:04:07;10.60;75.50
84791;DHT22;75024;43.486;3.794;2024-01-27T09:06:33;10.80;75.60
84791;DHT22;75024;43.486;3.794;2024-01-27T09:08:59;10.80;75.10
84791;DHT22;75024;43.486;3.794;2024-01-27T09:11:24;10.90;74.60
84791;DHT22;75024;43.486;3.794;2024-01-27T09:13:56;10.90;74.20
84791;DHT22;75024;43.486;3.794;2024-01-27T09:16:22;11.00;74.20
84791;DHT22;75024;43.486;3.794;2024-01-27T09:18:47;11.10;74.10
84791;DHT22;75024;43.486;3.794;2024-01-27T09:21:15;11.30;73.20
84791;DHT22;75024;43.486;3.794;2024-01-27T09:23:46;11.50;72.60
84791;DHT22;75024;43.486;3.794;2024-01-27T09:26:12;11.60;72.00
84791;DHT22;75024;43.486;3.794;2024-01-27T09:28:39;11.90;71.90
84791;DHT22;75024;43.486;3.794;2024-01-27T09:31:11;12.10;72.80
84791;DHT22;75024;43.486;3.794;2024-01-27T09:33:37;12.30;70.70
84791;DHT22;75024;43.486;3.794;2024-01-27T09:36:03;12.30;70.00
84791;DHT22;75024;43.486;3.794;2024-01-27T09:38:29;12.40;70.30
84791;DHT22;75024;43.486;3.794;2024-01-27T09:41:01;12.40;69.40
84791;DHT22;75024;43.486;3.794;2024-01-27T09:43:29;12.50;69.20
84791;DHT22;75024;43.486;3.794;2024-01-27T09:45:56;12.60;68.80
84791;DHT22;75024;43.486;3.794;2024-01-27T09:48:22;12.60;69.00
84791;DHT22;75024;43.486;3.794;2024-01-27T09:50:49;12.60;68.70
84791;DHT22;75024;43.486;3.794;2024-01-27T09:53:16;12.60;68.60
84791;DHT22;75024;43.486;3.794;2024-01-27T09:55:43;12.60;68.40
84791;DHT22;75024;43.486;3.794;2024-01-27T09:58:10;12.60;68.40
84791;DHT22;75024;43.486;3.794;2024-01-27T10:00:37;12.60;67.60
84791;DHT22;75024;43.486;3.794;2024-01-27T10:03:04;12.60;67.70
84791;DHT22;75024;43.486;3.794;2024-01-27T10:05:32;12.60;68.10
84791;DHT22;75024;43.486;3.794;2024-01-27T10:07:58;12.70;67.70
84791;DHT22;75024;43.486;3.794;2024-01-27T10:10:23;12.70;67.50
84791;DHT22;75024;43.486;3.794;2024-01-27T10:12:52;12.80;66.50
84791;DHT22;75024;43.486;3.794;2024-01-27T10:15:20;12.90;66.60
84791;DHT22;75024;43.486;3.794;2024-01-27T10:17:46;12.90;67.00
84791;DHT22;75024;43.486;3.794;2024-01-27T10:20:11;13.00;65.90
84791;DHT22;75024;43.486;3.794;2024-01-27T10:22:41;13.00;65.40
84791;DHT22;75024;43.486;3.794;2024-01-27T10:25:08;13.20;64.80
84791;DHT22;75024;43.486;3.794;2024-01-27T10:27:34;13.30;64.30
84791;DHT22;75024;43.486;3.794;2024-01-27T10:30:00;13.40;63.80
84791;DHT22;75024;43.486;3.794;2024-01-27T10:32:26;13.60;63.50
84791;DHT22;75024;43.486;3.794;2024-01-27T10:35:21;13.70;62.80
84791;DHT22;75024;43.486;3.794;2024-01-27T10:37:47;13.80;62.70
84791;DHT22;75024;43.486;3.794;2024-01-27T10:40:16;13.90;62.90
84791;DHT22;75024;43.486;3.794;2024-01-27T10:42:44;13.90;62.40
84791;DHT22;75024;43.486;3.794;2024-01-27T10:45:11;14.00;62.60
84791;DHT22;75024;43.486;3.794;2024-01-27T10:47:38;14.10;63.00
84791;DHT22;75024;43.486;3.794;2024-01-27T10:50:08;14.10;62.40
84791;DHT22;75024;43.486;3.794;2024-01-27T10:52:38;14.20;62.30
84791;DHT22;75024;43.486;3.794;2024-01-27T10:55:07;14.30;61.90
84791;DHT22;75024;43.486;3.794;2024-01-27T10:57:36;14.30;60.90
84791;DHT22;75024;43.486;3.794;2024-01-27T11:00:03;14.40;61.40
84791;DHT22;75024;43.486;3.794;2024-01-27T11:02:35;14.50;61.30
84791;DHT22;75024;43.486;3.794;2024-01-27T11:05:03;14.60;61.00
84791;DHT22;75024;43.486;3.794;2024-01-27T11:07:32;14.60;60.20
84791;DHT22;75024;43.486;3.794;2024-01-27T11:09:58;14.60;60.30
84791;DHT22;75024;43.486;3.794;2024-01-27T11:12:24;14.70;59.40
84791;DHT22;75024;43.486;3.794;2024-01-27T11:14:51;14.80;59.50
84791;DHT22;75024;43.486;3.794;2024-01-27T11:17:17;14.90;59.40
84791;DHT22;75024;43.486;3.794;2024-01-27T11:19:45;15.00;59.00
84791;DHT22;75024;43.486;3.794;2024-01-27T11:22:37;15.10;58.00
84791;DHT22;75024;43.486;3.794;2024-01-27T11:25:17;15.30;58.10
84791;DHT22;75024;43.486;3.794;2024-01-27T11:27:44;15.50;56.50
84791;DHT22;75024;43.486;3.794;2024-01-27T11:30:29;15.50;57.20
84791;DHT22;75024;43.486;3.794;2024-01-27T11:32:56;15.60;56.20
84791;DHT22;75024;43.486;3.794;2024-01-27T11:35:25;15.70;55.30
84791;DHT22;75024;43.486;3.794;2024-01-27T11:37:52;15.70;55.80
84791;DHT22;75024;43.486;3.794;2024-01-27T11:40:18;15.80;55.40
84791;DHT22;75024;43.486;3.794;2024-01-27T11:42:43;15.80;55.60
84791;DHT22;75024;43.486;3.794;2024-01-27T11:45:09;15.90;55.30
84791;DHT22;75024;43.486;3.794;2024-01-27T11:47:35;15.90;55.30
84791;DHT22;75024;43.486;3.794;2024-01-27T11:50:02;16.00;54.90
84791;DHT22;75024;43.486;3.794;2024-01-27T11:52:28;16.10;54.40
84791;DHT22;75024;43.486;3.794;2024-01-27T11:55:00;16.20;54.70
84791;DHT22;75024;43.486;3.794;2024-01-27T11:57:27;16.20;54.40
84791;DHT22;75024;43.486;3.794;2024-01-27T11:59:53;16.20;54.30
84791;DHT22;75024;43.486;3.794;2024-01-27T12:02:19;16.30;54.50
84791;DHT22;75024;43.486;3.794;2024-01-27T12:04:46;16.40;54.30
84791;DHT22;75024;43.486;3.794;2024-01-27T12:07:12;16.50;54.30
84791;DHT22;75024;43.486;3.794;2024-01-27T12:09:38;16.50;53.80
84791;DHT22;75024;43.486;3.794;2024-01-27T12:12:05;16.60;53.60
84791;DHT22;75024;43.486;3.794;2024-01-27T12:14:48;16.60;53.30
84791;DHT22;75024;43.486;3.794;2024-01-27T12:17:14;16.60;53.20
84791;DHT22;75024;43.486;3.794;2024-01-27T12:19:46;16.60;53.40
84791;DHT22;75024;43.486;3.794;2024-01-27T12:22:27;16.80;52.80
84791;DHT22;75024;43.486;3.794;2024-01-27T12:24:53;16.80;52.80
84791;DHT22;75024;43.486;3.794;2024-01-27T12:27:20;16.80;52.20
84791;DHT22;75024;43.486;3.794;2024-01-27T12:29:48;16.90;52.50
84791;DHT22;75024;43.486;3.794;2024-01-27T12:32:15;17.00;52.10
84791;DHT22;75024;43.486;3.794;2024-01-27T12:34:42;17.00;52.10
84791;DHT22;75024;43.486;3.794;2024-01-27T12:37:11;17.20;52.10
84791;DHT22;75024;43.486;3.794;2024-01-27T12:39:37;19.10;49.40
84791;DHT22;75024;43.486;3.794;2024-01-27T12:42:03;20.80;45.90
84791;DHT22;75024;43.486;3.794;2024-01-27T12:44:29;22.10;43.30
84791;DHT22;75024;43.486;3.794;2024-01-27T12:46:55;22.80;41.80
84791;DHT22;75024;43.486;3.794;2024-01-27T12:49:22;23.30;41.00
84791;DHT22;75024;43.486;3.794;2024-01-27T12:51:48;23.40;40.60
84791;DHT22;75024;43.486;3.794;2024-01-27T12:54:14;23.20;40.20
84791;DHT22;75024;43.486;3.794;2024-01-27T12:56:40;22.60;40.10
84791;DHT22;75024;43.486;3.794;2024-01-27T12:59:06;21.70;40.60
84791;DHT22;75024;43.486;3.794;2024-01-27T13:01:33;20.90;42.30
84791;DHT22;75024;43.486;3.794;2024-01-27T13:03:59;20.00;43.70
84791;DHT22;75024;43.486;3.794;2024-01-27T13:06:26;20.10;43.20
84791;DHT22;75024;43.486;3.794;2024-01-27T13:08:52;19.80;43.00
84791;DHT22;75024;43.486;3.794;2024-01-27T13:11:17;19.30;43.80
84791;DHT22;75024;43.486;3.794;2024-01-27T13:13:43;19.30;43.70
84791;DHT22;75024;43.486;3.794;2024-01-27T13:16:09;19.30;44.00
84791;DHT22;75024;43.486;3.794;2024-01-27T13:18:36;18.60;45.50
84791;DHT22;75024;43.486;3.794;2024-01-27T13:21:01;18.30;46.10
84791;DHT22;75024;43.486;3.794;2024-01-27T13:23:27;18.00;47.00
84791;DHT22;75024;43.486;3.794;2024-01-27T13:25:53;18.10;46.10
84791;DHT22;75024;43.486;3.794;2024-01-27T13:28:18;18.00;45.80
84791;DHT22;75024;43.486;3.794;2024-01-27T13:30:45;18.00;46.70
84791;DHT22;75024;43.486;3.794;2024-01-27T13:33:11;17.80;46.90
84791;DHT22;75024;43.486;3.794;2024-01-27T13:35:38;17.60;47.60
84791;DHT22;75024;43.486;3.794;2024-01-27T13:38:05;17.60;48.00
84791;DHT22;75024;43.486;3.794;2024-01-27T13:40:31;17.60;48.30
84791;DHT22;75024;43.486;3.794;2024-01-27T13:42:57;17.60;47.90
84791;DHT22;75024;43.486;3.794;2024-01-27T13:45:23;17.70;46.50
84791;DHT22;75024;43.486;3.794;2024-01-27T13:47:49;17.80;45.80
84791;DHT22;75024;43.486;3.794;2024-01-27T13:50:14;17.90;45.00
84791;DHT22;75024;43.486;3.794;2024-01-27T13:52:40;17.90;45.10
84791;DHT22;75024;43.486;3.794;2024-01-27T13:55:09;18.00;45.50
84791;DHT22;75024;43.486;3.794;2024-01-27T13:57:35;18.10;44.80
84791;DHT22;75024;43.486;3.794;2024-01-27T14:00:01;18.00;44.20
84791;DHT22;75024;43.486;3.794;2024-01-27T14:02:27;18.00;44.20
84791;DHT22;75024;43.486;3.794;2024-01-27T14:04:52;17.90;43.90
84791;DHT22;75024;43.486;3.794;2024-01-27T14:07:18;18.00;44.30
84791;DHT22;75024;43.486;3.794;2024-01-27T14:09:44;18.20;44.00
84791;DHT22;75024;43.486;3.794;2024-01-27T14:12:10;18.30;44.00
84791;DHT22;75024;43.486;3.794;2024-01-27T14:14:36;18.30;42.70
84791;DHT22;75024;43.486;3.794;2024-01-27T14:17:04;18.40;42.90
84791;DHT22;75024;43.486;3.794;2024-01-27T14:19:30;18.50;43.10
84791;DHT22;75024;43.486;3.794;2024-01-27T14:21:55;18.70;42.50
84791;DHT22;75024;43.486;3.794;2024-01-27T14:24:21;18.90;41.90
84791;DHT22;75024;43.486;3.794;2024-01-27T14:26:47;18.90;41.10
84791;DHT22;75024;43.486;3.794;2024-01-27T14:29:12;19.00;41.40
84791;DHT22;75024;43.486;3.794;2024-01-27T14:31:38;19.10;41.00
84791;DHT22;75024;43.486;3.794;2024-01-27T14:34:04;19.50;39.90
84791;DHT22;75024;43.486;3.794;2024-01-27T14:36:29;20.60;38.30
84791;DHT22;75024;43.486;3.794;2024-01-27T14:38:56;22.30;36.60
84791;DHT22;75024;43.486;3.794;2024-01-27T14:41:21;23.30;35.20
84791;DHT22;75024;43.486;3.794;2024-01-27T14:43:49;23.80;34.90
84791;DHT22;75024;43.486;3.794;2024-01-27T14:46:17;24.40;33.20
84791;DHT22;75024;43.486;3.794;2024-01-27T14:48:42;24.80;33.00
84791;DHT22;75024;43.486;3.794;2024-01-27T14:51:09;25.00;32.80
84791;DHT22;75024;43.486;3.794;2024-01-27T14:53:35;24.90;32.80
84791;DHT22;75024;43.486;3.794;2024-01-27T14:56:01;25.30;33.10
84791;DHT22;75024;43.486;3.794;2024-01-27T14:58:27;25.50;32.70
84791;DHT22;75024;43.486;3.794;2024-01-27T15:00:53;25.90;32.70
84791;DHT22;75024;43.486;3.794;2024-01-27T15:03:23;26.20;32.40
84791;DHT22;75024;43.486;3.794;2024-01-27T15:05:49;26.10;33.10
84791;DHT22;75024;43.486;3.794;2024-01-27T15:08:19;25.70;34.00
84791;DHT22;75024;43.486;3.794;2024-01-27T15:10:45;25.90;34.40
84791;DHT22;75024;43.486;3.794;2024-01-27T15:13:11;25.80;36.20
84791;DHT22;75024;43.486;3.794;2024-01-27T15:15:40;25.50;36.80
84791;DHT22;75024;43.486;3.794;2024-01-27T15:18:07;24.90;36.90
84791;DHT22;75024;43.486;3.794;2024-01-27T15:20:33;24.40;37.80
84791;DHT22;75024;43.486;3.794;2024-01-27T15:22:59;24.80;37.60
84791;DHT22;75024;43.486;3.794;2024-01-27T15:25:24;24.70;38.00
84791;DHT22;75024;43.486;3.794;2024-01-27T15:27:51;24.40;38.20
84791;DHT22;75024;43.486;3.794;2024-01-27T15:30:17;24.10;38.70
84791;DHT22;75024;43.486;3.794;2024-01-27T15:32:46;24.10;38.50
84791;DHT22;75024;43.486;3.794;2024-01-27T15:35:11;23.00;41.10